sensor_id;sensor_type;location;lat;lon;timestamp;temperature;humidity
21419;DHT22;10870;51.384;10.316;2022-08-26T00:33:48;23.50;99.90
21419;DHT22;10870;51.384;10.316;2022-08-26T00:35:49;23.30;99.90
21419;DHT22;10870;51.384;10.316;2022-08-26T00:37:50;23.20;99.90
21419;DHT22;10870;51.384;10.316;2022-08-26T00:39:51;23.20;99.90
21419;DHT22;10870;51.384;10.316;2022-08-26T00:41:52;23.10;99.90
21419;DHT22;10870;51.384;10.316;2022-08-26T00:43:56;23.10;99.90
21419;DHT22;10870;51.384;10.316;2022-08-26T00:45:58;23.10;99.90
21419;DHT22;10870;51.384;10.316;2022-08-26T00:48:01;23.00;99.90
21419;DHT22;10870;51.384;10.316;2022-08-26T00:50:06;23.00;99.90
21419;DHT22;10870;51.384;10.316;2022-08-26T00:52:09;23.00;99.90
21419;DHT22;10870;51.384;10.316;2022-08-26T00:54:12;23.00;99.90
21419;DHT22;10870;51.384;10.316;2022-08-26T00:56:37;22.90;99.90
21419;DHT22;10870;51.384;10.316;2022-08-26T00:58:40;22.90;99.90
21419;DHT22;10870;51.384;10.316;2022-08-26T01:00:42;22.90;99.90
21419;DHT22;10870;51.384;10.316;2022-08-26T01:02:44;22.90;99.90
21419;DHT22;10870;51.384;10.316;2022-08-26T01:04:49;22.90;99.90
21419;DHT22;10870;51.384;10.316;2022-08-26T01:06:53;22.90;99.90
21419;DHT22;10870;51.384;10.316;2022-08-26T01:08:57;22.90;99.90
21419;DHT22;10870;51.384;10.316;2022-08-26T01:11:00;22.90;99.90
21419;DHT22;10870;51.384;10.316;2022-08-26T01:13:03;22.90;99.90
21419;DHT22;10870;51.384;10.316;2022-08-26T01:15:08;22.90;99.90
21419;DHT22;10870;51.384;10.316;2022-08-26T01:17:12;22.90;99.90
21419;DHT22;10870;51.384;10.316;2022-08-26T01:19:14;22.90;99.90
21419;DHT22;10870;51.384;10.316;2022-08-26T01:21:23;22.90;99.90
21419;DHT22;10870;51.384;10.316;2022-08-26T01:23:28;22.80;99.90
21419;DHT22;10870;51.384;10.316;2022-08-26T01:25:31;22.80;99.90
21419;DHT22;10870;51.384;10.316;2022-08-26T01:27:33;22.80;99.90
21419;DHT22;10870;51.384;10.316;2022-08-26T01:29:35;22.70;99.90
21419;DHT22;10870;51.384;10.316;2022-08-26T01:31:39;22.70;99.90
21419;DHT22;10870;51.384;10.316;2022-08-26T01:35:44;22.60;99.90
21419;DHT22;10870;51.384;10.316;2022-08-26T01:37:51;22.60;99.90
21419;DHT22;10870;51.384;10.316;2022-08-26T01:39:54;22.50;99.90
21419;DHT22;10870;51.384;10.316;2022-08-26T01:41:58;22.50;99.90
21419;DHT22;10870;51.384;10.316;2022-08-26T01:44:03;22.40;99.90
21419;DHT22;10870;51.384;10.316;2022-08-26T01:46:04;22.40;99.90
21419;DHT22;10870;51.384;10.316;2022-08-26T01:48:09;22.50;99.90
21419;DHT22;10870;51.384;10.316;2022-08-26T01:50:16;22.40;99.90
21419;DHT22;10870;51.384;10.316;2022-08-26T01:52:20;22.40;99.90
21419;DHT22;10870;51.384;10.316;2022-08-26T01:54:22;22.40;99.90
21419;DHT22;10870;51.384;10.316;2022-08-26T01:56:23;22.40;99.90
21419;DHT22;10870;51.384;10.316;2022-08-26T01:58:26;22.40;99.90
21419;DHT22;10870;51.384;10.316;2022-08-26T02:00:30;22.40;99.90
21419;DHT22;10870;51.384;10.316;2022-08-26T02:02:32;22.30;99.90
21419;DHT22;10870;51.384;10.316;2022-08-26T02:04:34;22.30;99.90
21419;DHT22;10870;51.384;10.316;2022-08-26T02:06:37;22.30;99.90
21419;DHT22;10870;51.384;10.316;2022-08-26T02:08:43;22.30;99.90
21419;DHT22;10870;51.384;10.316;2022-08-26T02:10:45;22.30;99.90
21419;DHT22;10870;51.384;10.316;2022-08-26T02:12:46;22.30;99.90
21419;DHT22;10870;51.384;10.316;2022-08-26T02:14:51;22.30;99.90
21419;DHT22;10870;51.384;10.316;2022-08-26T02:16:53;22.30;99.90
21419;DHT22;10870;51.384;10.316;2022-08-26T02:18:55;22.30;99.90
21419;DHT22;10870;51.384;10.316;2022-08-26T02:20:57;22.20;99.90
21419;DHT22;10870;51.384;10.316;2022-08-26T02:22:58;22.20;99.90
21419;DHT22;10870;51.384;10.316;2022-08-26T02:27:16;22.20;99.90
21419;DHT22;10870;51.384;10.316;2022-08-26T02:29:21;22.20;99.90
21419;DHT22;10870;51.384;10.316;2022-08-26T02:31:25;22.20;99.90
21419;DHT22;10870;51.384;10.316;2022-08-26T02:33:29;22.20;99.90
21419;DHT22;10870;51.384;10.316;2022-08-26T02:35:33;22.20;99.90
21419;DHT22;10870;51.384;10.316;2022-08-26T02:37:34;22.20;99.90
21419;DHT22;10870;51.384;10.316;2022-08-26T02:39:35;22.10;99.90
21419;DHT22;10870;51.384;10.316;2022-08-26T02:41:37;22.10;99.90
21419;DHT22;10870;51.384;10.316;2022-08-26T02:43:38;22.10;99.90
21419;DHT22;10870;51.384;10.316;2022-08-26T02:45:41;22.00;99.90
21419;DHT22;10870;51.384;10.316;2022-08-26T02:47:42;22.00;99.90
21419;DHT22;10870;51.384;10.316;2022-08-26T02:49:45;22.00;99.90
21419;DHT22;10870;51.384;10.316;2022-08-26T03:06:49;21.90;99.90
21419;DHT22;10870;51.384;10.316;2022-08-26T03:08:50;21.90;99.90
21419;DHT22;10870;51.384;10.316;2022-08-26T03:10:51;21.80;99.90
21419;DHT22;10870;51.384;10.316;2022-08-26T03:12:55;21.80;99.90
21419;DHT22;10870;51.384;10.316;2022-08-26T03:14:58;21.70;99.90
21419;DHT22;10870;51.384;10.316;2022-08-26T03:17:01;21.70;99.90
21419;DHT22;10870;51.384;10.316;2022-08-26T03:19:03;21.70;99.90
21419;DHT22;10870;51.384;10.316;2022-08-26T03:21:12;21.80;99.90
21419;DHT22;10870;51.384;10.316;2022-08-26T03:23:15;21.80;99.90
21419;DHT22;10870;51.384;10.316;2022-08-26T03:25:18;21.70;99.90
21419;DHT22;10870;51.384;10.316;2022-08-26T03:27:22;21.80;99.90
21419;DHT22;10870;51.384;10.316;2022-08-26T03:29:23;21.80;99.90
21419;DHT22;10870;51.384;10.316;2022-08-26T03:31:42;21.80;99.90
21419;DHT22;10870;51.384;10.316;2022-08-26T03:33:43;21.80;99.90
21419;DHT22;10870;51.384;10.316;2022-08-26T03:35:44;21.70;99.90
21419;DHT22;10870;51.384;10.316;2022-08-26T03:37:47;21.70;99.90
21419;DHT22;10870;51.384;10.316;2022-08-26T03:39:48;21.70;99.90
21419;DHT22;10870;51.384;10.316;2022-08-26T03:41:49;21.70;99.90
21419;DHT22;10870;51.384;10.316;2022-08-26T03:43:53;21.70;99.90
21419;DHT22;10870;51.384;10.316;2022-08-26T03:45:54;21.70;99.90
21419;DHT22;10870;51.384;10.316;2022-08-26T03:47:55;21.70;99.90
21419;DHT22;10870;51.384;10.316;2022-08-26T03:49:59;21.60;99.90
21419;DHT22;10870;51.384;10.316;2022-08-26T03:52:02;21.60;99.90
21419;DHT22;10870;51.384;10.316;2022-08-26T03:54:11;21.50;99.90
21419;DHT22;10870;51.384;10.316;2022-08-26T03:56:14;21.50;99.90
21419;DHT22;10870;51.384;10.316;2022-08-26T03:58:15;21.40;99.90
21419;DHT22;10870;51.384;10.316;2022-08-26T04:00:26;21.40;99.90
21419;DHT22;10870;51.384;10.316;2022-08-26T04:02:27;21.40;99.90
21419;DHT22;10870;51.384;10.316;2022-08-26T04:04:31;21.40;99.90
21419;DHT22;10870;51.384;10.316;2022-08-26T04:06:39;21.40;99.90
21419;DHT22;10870;51.384;10.316;2022-08-26T04:08:42;21.40;99.90
21419;DHT22;10870;51.384;10.316;2022-08-26T04:10:44;21.50;99.90
21419;DHT22;10870;51.384;10.316;2022-08-26T04:12:47;21.50;99.90
21419;DHT22;10870;51.384;10.316;2022-08-26T04:14:53;21.50;99.90
21419;DHT22;10870;51.384;10.316;2022-08-26T04:16:54;21.50;99.90
21419;DHT22;10870;51.384;10.316;2022-08-26T04:18:58;21.50;99.90
21419;DHT22;10870;51.384;10.316;2022-08-26T04:21:01;21.60;99.90
21419;DHT22;10870;51.384;10.316;2022-08-26T04:23:05;21.60;99.90
21419;DHT22;10870;51.384;10.316;2022-08-26T04:25:08;21.60;99.90
21419;DHT22;10870;51.384;10.316;2022-08-26T04:27:09;21.60;99.90
21419;DHT22;10870;51.384;10.316;2022-08-26T04:29:12;21.60;99.90
21419;DHT22;10870;51.384;10.316;2022-08-26T04:31:22;21.60;99.90
21419;DHT22;10870;51.384;10.316;2022-08-26T04:33:25;21.60;99.90
21419;DHT22;10870;51.384;10.316;2022-08-26T04:35:26;21.60;99.90
21419;DHT22;10870;51.384;10.316;2022-08-26T04:37:30;21.50;99.90
21419;DHT22;10870;51.384;10.316;2022-08-26T04:39:31;21.50;99.90
21419;DHT22;10870;51.384;10.316;2022-08-26T04:41:35;21.50;99.90
21419;DHT22;10870;51.384;10.316;2022-08-26T04:43:41;21.50;99.90
21419;DHT22;10870;51.384;10.316;2022-08-26T04:45:42;21.50;99.90
21419;DHT22;10870;51.384;10.316;2022-08-26T04:47:43;21.50;99.90
21419;DHT22;10870;51.384;10.316;2022-08-26T04:49:46;21.50;99.90
21419;DHT22;10870;51.384;10.316;2022-08-26T04:51:50;21.50;99.90
21419;DHT22;10870;51.384;10.316;2022-08-26T04:53:55;21.50;99.90
21419;DHT22;10870;51.384;10.316;2022-08-26T04:55:59;21.50;99.90
21419;DHT22;10870;51.384;10.316;2022-08-26T04:58:00;21.50;99.90
21419;DHT22;10870;51.384;10.316;2022-08-26T05:00:04;21.50;99.90
21419;DHT22;10870;51.384;10.316;2022-08-26T05:02:05;21.50;99.90
21419;DHT22;10870;51.384;10.316;2022-08-26T05:04:09;21.50;99.90
21419;DHT22;10870;51.384;10.316;2022-08-26T05:06:13;21.60;99.90
21419;DHT22;10870;51.384;10.316;2022-08-26T05:08:15;21.60;99.90
21419;DHT22;10870;51.384;10.316;2022-08-26T05:10:19;21.60;99.90
21419;DHT22;10870;51.384;10.316;2022-08-26T05:12:20;21.60;99.90
21419;DHT22;10870;51.384;10.316;2022-08-26T05:14:21;21.60;99.90
21419;DHT22;10870;51.384;10.316;2022-08-26T05:16:26;21.60;99.90
21419;DHT22;10870;51.384;10.316;2022-08-26T05:18:28;21.60;99.90
21419;DHT22;10870;51.384;10.316;2022-08-26T05:20:43;21.50;99.90
21419;DHT22;10870;51.384;10.316;2022-08-26T05:22:45;21.50;99.90
21419;DHT22;10870;51.384;10.316;2022-08-26T05:24:46;21.50;99.90
21419;DHT22;10870;51.384;10.316;2022-08-26T05:26:47;21.50;99.90
21419;DHT22;10870;51.384;10.316;2022-08-26T05:28:52;21.50;99.90
21419;DHT22;10870;51.384;10.316;2022-08-26T05:30:57;21.50;99.90
21419;DHT22;10870;51.384;10.316;2022-08-26T05:33:06;21.50;99.90
21419;DHT22;10870;51.384;10.316;2022-08-26T05:35:08;21.50;99.90
21419;DHT22;10870;51.384;10.316;2022-08-26T05:37:12;21.50;99.90
21419;DHT22;10870;51.384;10.316;2022-08-26T05:39:13;21.50;99.90
21419;DHT22;10870;51.384;10.316;2022-08-26T05:41:17;21.50;99.90
21419;DHT22;10870;51.384;10.316;2022-08-26T05:43:18;21.40;99.90
21419;DHT22;10870;51.384;10.316;2022-08-26T05:45:19;21.40;99.90
21419;DHT22;10870;51.384;10.316;2022-08-26T05:47:26;21.40;99.90
21419;DHT22;10870;51.384;10.316;2022-08-26T05:49:33;21.40;99.90
21419;DHT22;10870;51.384;10.316;2022-08-26T05:51:35;21.40;99.90
21419;DHT22;10870;51.384;10.316;2022-08-26T05:53:39;21.40;99.90
21419;DHT22;10870;51.384;10.316;2022-08-26T05:55:44;21.40;99.90
21419;DHT22;10870;51.384;10.316;2022-08-26T05:57:46;21.50;99.90
21419;DHT22;10870;51.384;10.316;2022-08-26T05:59:47;21.50;99.90
21419;DHT22;10870;51.384;10.316;2022-08-26T06:01:48;21.50;99.90
21419;DHT22;10870;51.384;10.316;2022-08-26T06:03:49;21.50;99.90
21419;DHT22;10870;51.384;10.316;2022-08-26T06:05:54;21.50;99.90
21419;DHT22;10870;51.384;10.316;2022-08-26T06:07:55;21.60;99.90
21419;DHT22;10870;51.384;10.316;2022-08-26T06:10:13;21.60;99.90
21419;DHT22;10870;51.384;10.316;2022-08-26T06:12:14;21.70;99.90
21419;DHT22;10870;51.384;10.316;2022-08-26T06:14:17;21.70;99.90
21419;DHT22;10870;51.384;10.316;2022-08-26T06:16:33;21.70;99.90
21419;DHT22;10870;51.384;10.316;2022-08-26T06:18:41;21.70;99.90
21419;DHT22;10870;51.384;10.316;2022-08-26T06:20:43;21.70;99.90
21419;DHT22;10870;51.384;10.316;2022-08-26T06:22:49;21.70;99.90
21419;DHT22;10870;51.384;10.316;2022-08-26T06:25:11;21.70;99.90
21419;DHT22;10870;51.384;10.316;2022-08-26T06:27:33;21.70;99.90
21419;DHT22;10870;51.384;10.316;2022-08-26T06:29:34;21.70;99.90
21419;DHT22;10870;51.384;10.316;2022-08-26T06:31:35;21.80;99.90
21419;DHT22;10870;51.384;10.316;2022-08-26T06:33:36;21.80;99.90
21419;DHT22;10870;51.384;10.316;2022-08-26T06:35:47;21.80;99.90
21419;DHT22;10870;51.384;10.316;2022-08-26T06:37:50;21.80;99.90
21419;DHT22;10870;51.384;10.316;2022-08-26T06:39:55;21.90;99.90
21419;DHT22;10870;51.384;10.316;2022-08-26T06:41:56;21.90;99.90
21419;DHT22;10870;51.384;10.316;2022-08-26T06:43:59;22.00;99.90
21419;DHT22;10870;51.384;10.316;2022-08-26T06:46:02;22.00;99.90
21419;DHT22;10870;51.384;10.316;2022-08-26T06:48:07;22.10;99.90
21419;DHT22;10870;51.384;10.316;2022-08-26T06:50:10;22.10;99.90
21419;DHT22;10870;51.384;10.316;2022-08-26T06:52:11;22.20;99.90
21419;DHT22;10870;51.384;10.316;2022-08-26T06:54:14;22.20;99.90
21419;DHT22;10870;51.384;10.316;2022-08-26T06:56:17;22.30;99.90
21419;DHT22;10870;51.384;10.316;2022-08-26T06:58:20;22.40;99.90
21419;DHT22;10870;51.384;10.316;2022-08-26T07:00:21;22.40;99.90
21419;DHT22;10870;51.384;10.316;2022-08-26T07:02:22;22.50;99.90
21419;DHT22;10870;51.384;10.316;2022-08-26T07:04:26;22.50;99.90
21419;DHT22;10870;51.384;10.316;2022-08-26T07:06:34;22.60;99.90
21419;DHT22;10870;51.384;10.316;2022-08-26T07:08:35;22.60;99.90
21419;DHT22;10870;51.384;10.316;2022-08-26T07:10:36;22.70;99.90
21419;DHT22;10870;51.384;10.316;2022-08-26T07:12:37;22.80;99.90
21419;DHT22;10870;51.384;10.316;2022-08-26T07:14:38;22.80;99.90
21419;DHT22;10870;51.384;10.316;2022-08-26T07:16:39;22.80;99.90
21419;DHT22;10870;51.384;10.316;2022-08-26T07:18:41;22.80;99.90
21419;DHT22;10870;51.384;10.316;2022-08-26T07:20:42;22.80;99.90
21419;DHT22;10870;51.384;10.316;2022-08-26T07:22:45;22.80;99.90
21419;DHT22;10870;51.384;10.316;2022-08-26T07:24:50;22.90;99.90
21419;DHT22;10870;51.384;10.316;2022-08-26T07:26:57;22.90;99.90
21419;DHT22;10870;51.384;10.316;2022-08-26T07:28:58;22.90;99.90
21419;DHT22;10870;51.384;10.316;2022-08-26T07:31:07;23.00;99.90
21419;DHT22;10870;51.384;10.316;2022-08-26T07:33:11;23.10;99.90
21419;DHT22;10870;51.384;10.316;2022-08-26T07:35:12;23.10;99.90
21419;DHT22;10870;51.384;10.316;2022-08-26T07:37:13;23.20;99.90
21419;DHT22;10870;51.384;10.316;2022-08-26T07:39:14;23.30;99.90
21419;DHT22;10870;51.384;10.316;2022-08-26T07:41:17;23.30;99.90
21419;DHT22;10870;51.384;10.316;2022-08-26T07:43:18;23.40;99.90
21419;DHT22;10870;51.384;10.316;2022-08-26T07:45:19;23.40;99.90
21419;DHT22;10870;51.384;10.316;2022-08-26T07:47:20;23.50;99.90
21419;DHT22;10870;51.384;10.316;2022-08-26T07:49:22;23.60;99.90
21419;DHT22;10870;51.384;10.316;2022-08-26T07:51:24;23.60;99.90
21419;DHT22;10870;51.384;10.316;2022-08-26T07:53:25;23.70;99.90
21419;DHT22;10870;51.384;10.316;2022-08-26T07:55:28;23.70;99.90
21419;DHT22;10870;51.384;10.316;2022-08-26T07:57:30;23.80;99.90
21419;DHT22;10870;51.384;10.316;2022-08-26T07:59:33;23.80;99.90
21419;DHT22;10870;51.384;10.316;2022-08-26T08:01:39;23.90;99.90
21419;DHT22;10870;51.384;10.316;2022-08-26T08:03:43;24.00;99.90
21419;DHT22;10870;51.384;10.316;2022-08-26T08:05:47;24.00;99.90
21419;DHT22;10870;51.384;10.316;2022-08-26T08:07:48;24.10;99.90
21419;DHT22;10870;51.384;10.316;2022-08-26T08:09:49;24.20;99.90
21419;DHT22;10870;51.384;10.316;2022-08-26T08:11:51;24.30;99.90
21419;DHT22;10870;51.384;10.316;2022-08-26T08:13:54;24.30;99.90
21419;DHT22;10870;51.384;10.316;2022-08-26T08:17:59;24.40;90.30
21419;DHT22;10870;51.384;10.316;2022-08-26T08:20:00;24.50;84.50
21419;DHT22;10870;51.384;10.316;2022-08-26T08:22:02;24.50;74.00
21419;DHT22;10870;51.384;10.316;2022-08-26T08:24:04;24.60;59.00
21419;DHT22;10870;51.384;10.316;2022-08-26T08:26:10;24.70;46.50
21419;DHT22;10870;51.384;10.316;2022-08-26T08:28:14;24.70;36.60
21419;DHT22;10870;51.384;10.316;2022-08-26T08:30:16;24.80;18.50
21419;DHT22;10870;51.384;10.316;2022-08-26T08:32:21;24.90;14.80
21419;DHT22;10870;51.384;10.316;2022-08-26T08:34:25;24.90;1.00
21419;DHT22;10870;51.384;10.316;2022-08-26T08:36:27;25.00;1.00
21419;DHT22;10870;51.384;10.316;2022-08-26T08:38:31;25.10;1.00
21419;DHT22;10870;51.384;10.316;2022-08-26T08:40:39;25.10;1.00
21419;DHT22;10870;51.384;10.316;2022-08-26T08:42:56;25.20;1.00
21419;DHT22;10870;51.384;10.316;2022-08-26T08:44:58;25.20;1.00
21419;DHT22;10870;51.384;10.316;2022-08-26T08:47:02;25.30;1.00
21419;DHT22;10870;51.384;10.316;2022-08-26T08:49:05;25.30;1.00
21419;DHT22;10870;51.384;10.316;2022-08-26T08:53:39;25.40;1.00
21419;DHT22;10870;51.384;10.316;2022-08-26T08:58:15;25.50;1.00
21419;DHT22;10870;51.384;10.316;2022-08-26T09:00:14;25.50;1.00
21419;DHT22;10870;51.384;10.316;2022-08-26T09:02:33;25.60;1.00
21419;DHT22;10870;51.384;10.316;2022-08-26T09:06:44;25.70;1.00
21419;DHT22;10870;51.384;10.316;2022-08-26T09:08:47;25.80;99.90
21419;DHT22;10870;51.384;10.316;2022-08-26T09:10:58;25.80;99.90
21419;DHT22;10870;51.384;10.316;2022-08-26T09:13:01;25.80;99.90
21419;DHT22;10870;51.384;10.316;2022-08-26T09:15:06;25.90;99.90
21419;DHT22;10870;51.384;10.316;2022-08-26T09:17:23;25.90;99.90
21419;DHT22;10870;51.384;10.316;2022-08-26T09:19:42;26.00;99.90
21419;DHT22;10870;51.384;10.316;2022-08-26T09:21:59;26.00;1.00
21419;DHT22;10870;51.384;10.316;2022-08-26T09:24:00;26.00;99.90
21419;DHT22;10870;51.384;10.316;2022-08-26T09:26:02;26.10;1.00
21419;DHT22;10870;51.384;10.316;2022-08-26T09:28:04;26.20;1.00
21419;DHT22;10870;51.384;10.316;2022-08-26T15:21:20;25.30;99.90
21419;DHT22;10870;51.384;10.316;2022-08-26T15:23:22;25.30;99.90
21419;DHT22;10870;51.384;10.316;2022-08-26T15:25:27;25.10;99.90
21419;DHT22;10870;51.384;10.316;2022-08-26T15:27:42;24.90;1.00
21419;DHT22;10870;51.384;10.316;2022-08-26T15:29:43;24.70;1.00
21419;DHT22;10870;51.384;10.316;2022-08-26T15:31:47;24.50;1.00
21419;DHT22;10870;51.384;10.316;2022-08-26T15:33:48;24.50;99.90
21419;DHT22;10870;51.384;10.316;2022-08-26T15:35:53;24.30;99.90
21419;DHT22;10870;51.384;10.316;2022-08-26T15:37:59;24.20;99.90
21419;DHT22;10870;51.384;10.316;2022-08-26T15:40:03;24.00;1.00
21419;DHT22;10870;51.384;10.316;2022-08-26T15:42:05;24.00;1.00
21419;DHT22;10870;51.384;10.316;2022-08-26T15:44:06;23.80;99.90
21419;DHT22;10870;51.384;10.316;2022-08-26T15:46:10;23.80;1.00
21419;DHT22;10870;51.384;10.316;2022-08-26T15:48:11;23.80;99.90
21419;DHT22;10870;51.384;10.316;2022-08-26T15:50:12;23.80;1.00
21419;DHT22;10870;51.384;10.316;2022-08-26T15:52:16;23.70;99.90
21419;DHT22;10870;51.384;10.316;2022-08-26T15:54:19;23.70;1.00
21419;DHT22;10870;51.384;10.316;2022-08-26T15:56:24;23.80;1.00
21419;DHT22;10870;51.384;10.316;2022-08-26T15:58:33;23.80;99.90
21419;DHT22;10870;51.384;10.316;2022-08-26T16:00:34;23.80;99.90
21419;DHT22;10870;51.384;10.316;2022-08-26T16:02:46;23.70;1.00
21419;DHT22;10870;51.384;10.316;2022-08-26T16:04:53;23.80;1.00
21419;DHT22;10870;51.384;10.316;2022-08-26T16:07:04;23.80;1.00
21419;DHT22;10870;51.384;10.316;2022-08-26T16:09:10;23.80;1.00
21419;DHT22;10870;51.384;10.316;2022-08-26T16:11:13;23.90;1.00
21419;DHT22;10870;51.384;10.316;2022-08-26T16:13:15;23.90;1.00
21419;DHT22;10870;51.384;10.316;2022-08-26T16:15:16;23.90;99.90
21419;DHT22;10870;51.384;10.316;2022-08-26T16:17:18;23.80;99.90
21419;DHT22;10870;51.384;10.316;2022-08-26T16:19:22;23.80;99.90
21419;DHT22;10870;51.384;10.316;2022-08-26T16:21:26;23.80;1.00
21419;DHT22;10870;51.384;10.316;2022-08-26T16:25:44;23.70;1.00
21419;DHT22;10870;51.384;10.316;2022-08-26T16:27:46;23.70;99.90
21419;DHT22;10870;51.384;10.316;2022-08-26T16:29:56;23.70;1.00
21419;DHT22;10870;51.384;10.316;2022-08-26T16:31:57;23.70;1.00
21419;DHT22;10870;51.384;10.316;2022-08-26T16:34:01;23.50;57.20
21419;DHT22;10870;51.384;10.316;2022-08-26T16:36:05;23.50;99.90
21419;DHT22;10870;51.384;10.316;2022-08-26T16:38:12;23.50;1.00
21419;DHT22;10870;51.384;10.316;2022-08-26T16:40:26;23.50;1.00
21419;DHT22;10870;51.384;10.316;2022-08-26T16:42:30;23.40;57.40
21419;DHT22;10870;51.384;10.316;2022-08-26T16:44:34;23.50;1.00
21419;DHT22;10870;51.384;10.316;2022-08-26T16:46:47;23.50;1.00
21419;DHT22;10870;51.384;10.316;2022-08-26T16:48:56;23.50;99.90
21419;DHT22;10870;51.384;10.316;2022-08-26T16:51:12;23.50;99.90
21419;DHT22;10870;51.384;10.316;2022-08-26T16:53:20;23.50;99.90
21419;DHT22;10870;51.384;10.316;2022-08-26T16:55:26;23.40;1.00
21419;DHT22;10870;51.384;10.316;2022-08-26T16:57:37;23.30;1.00
21419;DHT22;10870;51.384;10.316;2022-08-26T16:59:41;23.20;1.00
21419;DHT22;10870;51.384;10.316;2022-08-26T17:01:47;23.10;99.90
21419;DHT22;10870;51.384;10.316;2022-08-26T17:03:49;23.10;1.00
21419;DHT22;10870;51.384;10.316;2022-08-26T17:05:53;23.10;1.00
21419;DHT22;10870;51.384;10.316;2022-08-26T17:07:55;23.10;99.90
21419;DHT22;10870;51.384;10.316;2022-08-26T17:09:56;23.00;1.00
21419;DHT22;10870;51.384;10.316;2022-08-26T17:11:57;23.00;99.90
21419;DHT22;10870;51.384;10.316;2022-08-26T17:13:58;23.00;1.00
21419;DHT22;10870;51.384;10.316;2022-08-26T17:16:01;23.00;1.00
21419;DHT22;10870;51.384;10.316;2022-08-26T17:18:06;23.00;19.00
21419;DHT22;10870;51.384;10.316;2022-08-26T17:20:10;23.00;99.90
21419;DHT22;10870;51.384;10.316;2022-08-26T17:22:12;23.00;99.90
21419;DHT22;10870;51.384;10.316;2022-08-26T17:24:18;23.10;99.90
21419;DHT22;10870;51.384;10.316;2022-08-26T17:26:19;23.10;1.00
21419;DHT22;10870;51.384;10.316;2022-08-26T17:28:27;23.20;28.30
21419;DHT22;10870;51.384;10.316;2022-08-26T17:30:28;23.30;99.90
21419;DHT22;10870;51.384;10.316;2022-08-26T17:32:31;23.30;99.90
21419;DHT22;10870;51.384;10.316;2022-08-26T17:34:35;23.40;1.00
21419;DHT22;10870;51.384;10.316;2022-08-26T17:36:40;23.30;1.00
21419;DHT22;10870;51.384;10.316;2022-08-26T17:38:41;23.30;99.90
21419;DHT22;10870;51.384;10.316;2022-08-26T17:40:42;23.30;1.00
21419;DHT22;10870;51.384;10.316;2022-08-26T17:42:44;23.10;99.90
21419;DHT22;10870;51.384;10.316;2022-08-26T17:44:45;23.20;99.90
21419;DHT22;10870;51.384;10.316;2022-08-26T17:46:53;23.20;30.20
21419;DHT22;10870;51.384;10.316;2022-08-26T17:48:55;23.20;99.90
21419;DHT22;10870;51.384;10.316;2022-08-26T17:50:57;23.30;99.90
21419;DHT22;10870;51.384;10.316;2022-08-26T17:53:04;23.30;1.00
21419;DHT22;10870;51.384;10.316;2022-08-26T17:55:06;23.30;1.00
21419;DHT22;10870;51.384;10.316;2022-08-26T17:57:09;23.40;1.00
21419;DHT22;10870;51.384;10.316;2022-08-26T17:59:13;23.40;1.00
21419;DHT22;10870;51.384;10.316;2022-08-26T18:01:15;23.40;99.90
21419;DHT22;10870;51.384;10.316;2022-08-26T18:03:17;23.40;99.90
21419;DHT22;10870;51.384;10.316;2022-08-26T18:05:32;23.50;99.90
21419;DHT22;10870;51.384;10.316;2022-08-26T18:07:39;23.50;1.00
21419;DHT22;10870;51.384;10.316;2022-08-26T18:09:55;23.40;1.00
21419;DHT22;10870;51.384;10.316;2022-08-26T18:12:03;23.40;1.00
21419;DHT22;10870;51.384;10.316;2022-08-26T18:14:16;23.40;1.00
21419;DHT22;10870;51.384;10.316;2022-08-26T18:16:22;23.30;16.10
21419;DHT22;10870;51.384;10.316;2022-08-26T18:18:31;23.30;1.00
21419;DHT22;10870;51.384;10.316;2022-08-26T18:20:35;23.30;1.00
21419;DHT22;10870;51.384;10.316;2022-08-26T18:22:40;23.30;1.00
21419;DHT22;10870;51.384;10.316;2022-08-26T18:24:45;23.30;99.90
21419;DHT22;10870;51.384;10.316;2022-08-26T18:26:50;23.30;99.90
21419;DHT22;10870;51.384;10.316;2022-08-26T18:28:51;23.20;99.90
21419;DHT22;10870;51.384;10.316;2022-08-26T18:30:52;23.20;99.90
21419;DHT22;10870;51.384;10.316;2022-08-26T18:33:00;23.20;99.90
21419;DHT22;10870;51.384;10.316;2022-08-26T18:35:08;23.20;99.90
21419;DHT22;10870;51.384;10.316;2022-08-26T18:37:12;23.10;1.00
21419;DHT22;10870;51.384;10.316;2022-08-26T18:39:15;23.10;1.00
21419;DHT22;10870;51.384;10.316;2022-08-26T18:41:18;23.00;1.00
21419;DHT22;10870;51.384;10.316;2022-08-26T18:43:20;23.00;1.00
21419;DHT22;10870;51.384;10.316;2022-08-26T18:45:24;22.90;1.00
21419;DHT22;10870;51.384;10.316;2022-08-26T18:47:37;22.90;1.00
21419;DHT22;10870;51.384;10.316;2022-08-26T18:49:43;22.80;1.00
21419;DHT22;10870;51.384;10.316;2022-08-26T18:51:47;22.80;1.00
21419;DHT22;10870;51.384;10.316;2022-08-26T18:53:53;22.80;1.00
21419;DHT22;10870;51.384;10.316;2022-08-26T18:55:57;22.80;1.00
21419;DHT22;10870;51.384;10.316;2022-08-26T18:58:06;22.80;1.00
21419;DHT22;10870;51.384;10.316;2022-08-26T19:00:20;22.70;1.00
21419;DHT22;10870;51.384;10.316;2022-08-26T19:02:21;22.80;1.00
21419;DHT22;10870;51.384;10.316;2022-08-26T19:04:23;22.70;1.00
21419;DHT22;10870;51.384;10.316;2022-08-26T19:06:25;22.70;1.00
21419;DHT22;10870;51.384;10.316;2022-08-26T19:08:28;22.70;1.00
21419;DHT22;10870;51.384;10.316;2022-08-26T19:10:55;22.60;1.00
21419;DHT22;10870;51.384;10.316;2022-08-26T19:13:01;22.60;1.00
21419;DHT22;10870;51.384;10.316;2022-08-26T19:15:11;22.60;1.00
21419;DHT22;10870;51.384;10.316;2022-08-26T19:17:17;22.60;99.90
21419;DHT22;10870;51.384;10.316;2022-08-26T19:19:24;22.60;99.90
21419;DHT22;10870;51.384;10.316;2022-08-26T19:21:28;22.50;2.10
21419;DHT22;10870;51.384;10.316;2022-08-26T19:23:31;22.50;1.00
21419;DHT22;10870;51.384;10.316;2022-08-26T19:25:33;22.50;99.90
21419;DHT22;10870;51.384;10.316;2022-08-26T19:27:38;22.50;99.90
21419;DHT22;10870;51.384;10.316;2022-08-26T19:29:39;22.40;99.90
21419;DHT22;10870;51.384;10.316;2022-08-26T19:31:46;22.30;99.90
21419;DHT22;10870;51.384;10.316;2022-08-26T19:33:47;22.20;1.00
21419;DHT22;10870;51.384;10.316;2022-08-26T19:35:51;22.10;99.90
21419;DHT22;10870;51.384;10.316;2022-08-26T19:37:52;22.10;99.90
21419;DHT22;10870;51.384;10.316;2022-08-26T19:39:55;22.10;83.60
21419;DHT22;10870;51.384;10.316;2022-08-26T19:41:56;22.10;99.90
21419;DHT22;10870;51.384;10.316;2022-08-26T19:43:57;22.20;99.90
21419;DHT22;10870;51.384;10.316;2022-08-26T19:45:58;22.20;54.40
21419;DHT22;10870;51.384;10.316;2022-08-26T19:48:05;22.20;51.80
21419;DHT22;10870;51.384;10.316;2022-08-26T19:50:07;22.20;1.00